createdAt,value
2018-11-02T00:01:42.609Z,100596.00
2018-11-02T00:07:45.413Z,100609.00
2018-11-02T00:13:49.080Z,100614.00
2018-11-02T00:19:52.770Z,100618.00
2018-11-02T00:25:55.383Z,100631.00
2018-11-02T00:31:58.241Z,100633.00
2018-11-02T00:38:00.992Z,100635.00
2018-11-02T00:44:03.849Z,100629.00
2018-11-02T00:50:09.329Z,100632.00
2018-11-02T00:56:17.160Z,100623.00
2018-11-02T01:02:19.632Z,100624.00
2018-11-02T01:08:22.161Z,100647.00
2018-11-02T01:14:25.059Z,100677.00
2018-11-02T01:20:28.844Z,100688.00
2018-11-02T01:26:32.186Z,100691.00
2018-11-02T01:32:34.811Z,100706.00
2018-11-02T01:38:37.483Z,100710.00
2018-11-02T01:44:40.442Z,100711.00
2018-11-02T01:50:43.815Z,100714.00
2018-11-02T01:56:46.516Z,100713.00
2018-11-02T02:02:49.161Z,100713.00
2018-11-02T02:08:51.874Z,100713.00
2018-11-02T02:14:54.935Z,100738.00
2018-11-02T02:20:57.470Z,100756.00
2018-11-02T02:27:00.008Z,100759.00
2018-11-02T02:33:03.240Z,100760.00
2018-11-02T02:39:07.644Z,100765.00
2018-11-02T02:45:11.426Z,100778.00
2018-11-02T02:51:14.958Z,100781.00
2018-11-02T02:57:18.318Z,100783.00
2018-11-02T03:03:21.701Z,100807.00
2018-11-02T03:09:24.578Z,100822.00
2018-11-02T03:15:27.010Z,100836.00
2018-11-02T03:21:29.585Z,100839.00
2018-11-02T03:27:33.239Z,100851.00
2018-11-02T03:33:35.800Z,100867.00
2018-11-02T03:39:38.263Z,100863.00
2018-11-02T03:45:41.057Z,100873.00
2018-11-02T03:51:43.579Z,100892.00
2018-11-02T03:57:46.548Z,100906.00
2018-11-02T04:03:49.196Z,100921.00
2018-11-02T04:09:51.978Z,100923.00
2018-11-02T04:15:54.533Z,100938.00
2018-11-02T04:21:57.918Z,100947.00
2018-11-02T04:28:00.484Z,100956.00
2018-11-02T04:34:03.124Z,100975.00
2018-11-02T04:40:06.448Z,100986.00
2018-11-02T04:46:09.134Z,100998.00
2018-11-02T04:52:18.784Z,101004.00
2018-11-02T04:58:21.353Z,101021.00
2018-11-02T05:04:24.570Z,101042.00
2018-11-02T05:10:27.346Z,101048.00
2018-11-02T05:16:30.626Z,101069.00
2018-11-02T05:22:33.753Z,101085.00
2018-11-02T05:28:42.974Z,101092.00
2018-11-02T05:34:51.053Z,101114.00
2018-11-02T05:40:54.587Z,101130.00
2018-11-02T05:46:58.309Z,101143.00
2018-11-02T05:53:02.068Z,101159.00
2018-11-02T05:59:05.402Z,101169.00
2018-11-02T06:05:09.502Z,101177.00
2018-11-02T06:11:12.357Z,101188.00
2018-11-02T06:17:14.862Z,101203.00
2018-11-02T06:23:17.915Z,101213.00
2018-11-02T06:29:20.389Z,101220.00
2018-11-02T06:35:22.789Z,101234.00
2018-11-02T06:41:25.373Z,101256.00
2018-11-02T06:47:28.251Z,101264.00
2018-11-02T06:53:30.769Z,101274.00
2018-11-02T06:59:37.158Z,101304.00
2018-11-02T07:05:39.897Z,101315.00
2018-11-02T07:11:42.459Z,101321.00
2018-11-02T07:17:46.371Z,101337.00
2018-11-02T07:23:50.075Z,101349.00
2018-11-02T07:29:52.809Z,101346.00
2018-11-02T07:35:55.350Z,101360.00
2018-11-02T07:41:58.644Z,101377.00
2018-11-02T07:48:01.028Z,101391.00
2018-11-02T07:54:04.646Z,101407.00
2018-11-02T08:00:10.711Z,101416.00
2018-11-02T08:06:13.399Z,101415.00
2018-11-02T08:12:16.668Z,101409.00
2018-11-02T08:18:19.466Z,101423.00
2018-11-02T08:24:21.948Z,101423.00
2018-11-02T08:30:24.456Z,101436.00
2018-11-02T08:36:26.909Z,101442.00
2018-11-02T08:42:29.486Z,101453.00
2018-11-02T08:48:32.317Z,101458.00
2018-11-02T08:54:35.945Z,101451.00
2018-11-02T09:00:38.701Z,101470.00
2018-11-02T09:06:41.256Z,101476.00
2018-11-02T09:12:43.887Z,101472.00
2018-11-02T09:18:47.401Z,101482.00
2018-11-02T09:24:51.169Z,101497.00
2018-11-02T09:30:54.035Z,101489.00
2018-11-02T09:36:56.698Z,101502.00
2018-11-02T09:42:59.617Z,101512.00
2018-11-02T09:49:02.332Z,101528.00
2018-11-02T09:55:05.781Z,101538.00
2018-11-02T10:01:08.746Z,101539.00
2018-11-02T10:07:11.599Z,101551.00
2018-11-02T10:13:14.545Z,101563.00
2018-11-02T10:19:17.039Z,101571.00
2018-11-02T10:25:19.591Z,101576.00
2018-11-02T10:31:22.172Z,101574.00
2018-11-02T10:37:25.042Z,101579.00
2018-11-02T10:43:29.312Z,101579.00
2018-11-02T10:49:33.204Z,101586.00
2018-11-02T10:55:35.608Z,101595.00
2018-11-02T11:01:43.876Z,101599.00
2018-11-02T11:07:46.850Z,101615.00
2018-11-02T11:13:49.649Z,101608.00
2018-11-02T11:19:52.146Z,101621.00
2018-11-02T11:25:54.758Z,101615.00
2018-11-02T11:31:57.346Z,101612.00
2018-11-02T11:37:59.962Z,101624.00
2018-11-02T11:44:02.610Z,101633.00
2018-11-02T11:50:10.152Z,101637.00
2018-11-02T11:56:12.837Z,101633.00
2018-11-02T12:02:15.662Z,101635.00
2018-11-02T12:08:18.691Z,101624.00
2018-11-02T12:14:21.214Z,101637.00
2018-11-02T12:20:26.799Z,101648.00
2018-11-02T12:26:29.441Z,101650.00
2018-11-02T12:32:32.006Z,101669.00
2018-11-02T12:38:34.725Z,101670.00
2018-11-02T12:44:37.510Z,101678.00
2018-11-02T12:50:41.148Z,101686.00
2018-11-02T12:56:44.178Z,101691.00
2018-11-02T13:02:47.821Z,101683.00
2018-11-02T13:08:50.853Z,101698.00
2018-11-02T13:14:53.519Z,101693.00
2018-11-02T13:20:56.438Z,101695.00
2018-11-02T13:27:00.097Z,101711.00
2018-11-02T13:33:03.405Z,101712.00
2018-11-02T13:39:09.350Z,101710.00
2018-11-02T13:45:13.427Z,101710.00
2018-11-02T13:51:16.246Z,101715.00
2018-11-02T13:57:20.103Z,101733.00
2018-11-02T14:03:22.870Z,101741.00
2018-11-02T14:09:25.329Z,101744.00
2018-11-02T14:15:27.789Z,101760.00
2018-11-02T14:21:30.353Z,101768.00
2018-11-02T14:27:33.479Z,101784.00
2018-11-02T14:33:36.166Z,101804.00
2018-11-02T14:39:39.714Z,101811.00
2018-11-02T14:45:42.639Z,101831.00
2018-11-02T14:51:46.184Z,101838.00
2018-11-02T14:57:48.824Z,101847.00
2018-11-02T15:03:51.536Z,101862.00
2018-11-02T15:09:54.047Z,101879.00
2018-11-02T15:15:56.824Z,101883.00
2018-11-02T15:21:59.373Z,101890.00
2018-11-02T15:28:01.956Z,101893.00
2018-11-02T15:34:05.045Z,101884.00
2018-11-02T15:40:09.410Z,101885.00
2018-11-02T15:46:13.363Z,101875.00
2018-11-02T15:52:16.653Z,101890.00
2018-11-02T15:58:20.414Z,101894.00
2018-11-02T16:04:22.971Z,101895.00
2018-11-02T16:10:25.457Z,101906.00
2018-11-02T16:16:28.004Z,101925.00
2018-11-02T16:22:30.602Z,101924.00
2018-11-02T16:28:33.714Z,101922.00
2018-11-02T16:34:36.318Z,101920.00
2018-11-02T16:40:40.154Z,101931.00
2018-11-02T16:46:43.545Z,101955.00
2018-11-02T16:52:46.407Z,101960.00
2018-11-02T16:58:50.246Z,101980.00
2018-11-02T17:04:53.747Z,101989.00
2018-11-02T17:10:58.080Z,102006.00
2018-11-02T17:17:00.926Z,102019.00
2018-11-02T17:23:03.668Z,102031.00
2018-11-02T17:29:06.313Z,102035.00
2018-11-02T17:37:43.804Z,102046.00
2018-11-02T17:43:46.397Z,102047.00
2018-11-02T17:49:49.746Z,102061.00
2018-11-02T17:55:52.595Z,102074.00
2018-11-02T18:01:56.542Z,102088.00
2018-11-02T18:07:59.186Z,102093.00
2018-11-02T18:14:01.702Z,102106.00
2018-11-02T18:20:06.019Z,102108.00
2018-11-02T18:26:08.508Z,102120.00
2018-11-02T18:32:11.077Z,102130.00
2018-11-02T18:38:14.956Z,102143.00
2018-11-02T18:44:17.545Z,102148.00
2018-11-02T18:50:21.298Z,102167.00
2018-11-02T18:56:23.989Z,102171.00
2018-11-02T19:02:26.480Z,102173.00
2018-11-02T19:08:29.025Z,102191.00
2018-11-02T19:14:31.550Z,102196.00
2018-11-02T19:20:34.228Z,102201.00
2018-11-02T19:26:36.691Z,102204.00
2018-11-02T19:32:39.285Z,102210.00
2018-11-02T19:38:42.020Z,102220.00
2018-11-02T19:44:44.440Z,102217.00
2018-11-02T19:50:47.187Z,102218.00
2018-11-02T19:56:49.840Z,102228.00
2018-11-02T20:02:52.576Z,102222.00
2018-11-02T20:08:56.439Z,102236.00
2018-11-02T20:14:58.917Z,102239.00
2018-11-02T20:21:01.711Z,102241.00
2018-11-02T20:27:05.119Z,102244.00
2018-11-02T20:33:07.572Z,102248.00
2018-11-02T20:39:11.181Z,102244.00
2018-11-02T20:45:13.908Z,102254.00
2018-11-02T20:51:17.134Z,102252.00
2018-11-02T20:57:19.732Z,102255.00
2018-11-02T21:03:22.663Z,102265.00
2018-11-02T21:09:26.713Z,102270.00
2018-11-02T21:15:29.230Z,102275.00
2018-11-02T21:21:31.817Z,102282.00
2018-11-02T21:27:34.774Z,102285.00
2018-11-02T21:33:37.497Z,102279.00
2018-11-02T21:39:40.730Z,102281.00
2018-11-02T21:45:43.188Z,102286.00
2018-11-02T21:51:45.934Z,102280.00
2018-11-02T21:57:49.697Z,102279.00
2018-11-02T22:03:52.879Z,102291.00
2018-11-02T22:09:55.973Z,102304.00
2018-11-02T22:15:59.090Z,102299.00
2018-11-02T22:22:01.631Z,102301.00
2018-11-02T22:28:04.181Z,102310.00
2018-11-02T22:34:06.796Z,102310.00
2018-11-02T22:40:10.578Z,102309.00
2018-11-02T22:46:13.020Z,102312.00
2018-11-02T22:52:15.528Z,102322.00
2018-11-02T22:58:18.062Z,102317.00
2018-11-02T23:04:20.875Z,102318.00
2018-11-02T23:10:23.637Z,102323.00
2018-11-02T23:16:27.369Z,102324.00
2018-11-02T23:22:30.184Z,102330.00
2018-11-02T23:28:32.766Z,102323.00
2018-11-02T23:34:35.698Z,102319.00
2018-11-02T23:40:38.415Z,102320.00
2018-11-02T23:46:41.511Z,102322.00
2018-11-02T23:52:44.230Z,102326.00
2018-11-02T23:58:53.002Z,102308.00
